createdAt,value
2019-05-20T00:01:41.503Z,9.20
2019-05-20T00:04:10.052Z,9.78
2019-05-20T00:06:38.360Z,9.63
2019-05-20T00:09:06.884Z,9.60
2019-05-20T00:11:35.184Z,9.60
2019-05-20T00:14:03.787Z,9.70
2019-05-20T00:16:32.100Z,10.08
2019-05-20T00:19:00.405Z,9.70
2019-05-20T00:21:28.725Z,10.35
2019-05-20T00:23:57.065Z,10.32
2019-05-20T00:26:25.477Z,9.65
2019-05-20T00:28:53.802Z,10.30
2019-05-20T00:31:22.121Z,10.45
2019-05-20T00:33:50.449Z,10.60
2019-05-20T00:36:18.758Z,10.60
2019-05-20T00:38:48.696Z,10.60
2019-05-20T00:41:16.990Z,11.20
2019-05-20T00:43:45.323Z,11.08
2019-05-20T00:46:13.619Z,11.12
2019-05-20T00:48:42.029Z,11.70
2019-05-20T00:51:10.336Z,11.20
2019-05-20T00:53:38.677Z,12.40
2019-05-20T00:56:06.986Z,11.75
2019-05-20T00:58:35.302Z,11.50
2019-05-20T01:01:03.597Z,11.93
2019-05-20T01:03:31.925Z,12.00
2019-05-20T01:06:00.538Z,11.60
2019-05-20T01:08:28.846Z,12.58
2019-05-20T01:10:57.176Z,13.07
2019-05-20T01:13:25.471Z,12.90
2019-05-20T01:15:53.796Z,13.17
2019-05-20T01:18:22.464Z,13.05
2019-05-20T01:20:51.046Z,13.30
2019-05-20T01:23:19.350Z,13.62
2019-05-20T01:25:47.676Z,13.18
2019-05-20T01:28:15.975Z,13.60
2019-05-20T01:30:44.283Z,13.30
2019-05-20T01:33:14.355Z,14.10
2019-05-20T01:35:43.340Z,14.40
2019-05-20T01:38:11.913Z,14.10
2019-05-20T01:40:40.660Z,13.90
2019-05-20T01:43:08.919Z,14.58
2019-05-20T01:45:37.671Z,14.73
2019-05-20T01:48:06.012Z,15.25
2019-05-20T01:50:37.188Z,14.75
2019-05-20T01:53:05.514Z,15.15
2019-05-20T01:55:34.161Z,15.00
2019-05-20T01:58:02.488Z,14.20
2019-05-20T02:00:30.778Z,15.05
2019-05-20T02:02:59.086Z,14.83
2019-05-20T02:05:27.386Z,15.08
2019-05-20T02:07:55.714Z,15.45
2019-05-20T02:10:24.091Z,15.75
2019-05-20T02:12:52.883Z,15.25
2019-05-20T02:15:41.187Z,16.23
2019-05-20T02:18:09.495Z,15.78
2019-05-20T02:20:37.831Z,16.67
2019-05-20T02:23:16.543Z,16.60
2019-05-20T02:25:49.109Z,16.57
2019-05-20T02:28:17.394Z,17.42
2019-05-20T02:30:46.070Z,18.05
2019-05-20T02:33:14.476Z,17.70
2019-05-20T02:35:42.800Z,18.50
2019-05-20T02:38:11.415Z,18.85
2019-05-20T02:40:39.724Z,18.77
2019-05-20T02:43:08.290Z,19.35
2019-05-20T02:45:36.701Z,19.32
2019-05-20T02:48:05.084Z,19.30
2019-05-20T02:50:33.442Z,20.40
2019-05-20T02:53:01.738Z,20.70
2019-05-20T02:55:30.051Z,20.43
2019-05-20T02:57:58.361Z,21.07
2019-05-20T03:00:26.663Z,21.05
2019-05-20T03:02:54.989Z,21.60
2019-05-20T03:05:23.295Z,20.52
2019-05-20T03:07:51.602Z,20.68
2019-05-20T03:10:20.144Z,21.40
2019-05-20T03:12:48.548Z,22.22
2019-05-20T03:15:17.179Z,22.98
2019-05-20T03:17:45.543Z,22.30
2019-05-20T03:20:14.034Z,22.00
2019-05-20T03:22:42.367Z,21.37
2019-05-20T03:25:10.845Z,21.85
2019-05-20T03:27:44.209Z,22.45
2019-05-20T03:30:13.237Z,23.10
2019-05-20T03:32:41.865Z,24.27
2019-05-20T03:35:10.434Z,24.10
2019-05-20T03:37:39.056Z,24.13
2019-05-20T03:40:08.475Z,24.57
2019-05-20T03:42:36.779Z,24.23
2019-05-20T03:45:05.933Z,23.35
2019-05-20T03:47:34.260Z,23.52
2019-05-20T03:50:02.572Z,23.40
2019-05-20T03:52:30.873Z,24.95
2019-05-20T03:54:59.212Z,24.27
2019-05-20T03:57:27.512Z,25.62
2019-05-20T03:59:55.882Z,24.77
2019-05-20T04:02:24.168Z,25.77
2019-05-20T04:05:01.996Z,23.98
2019-05-20T04:07:22.804Z,25.55
2019-05-20T04:09:51.321Z,24.50
2019-05-20T04:12:19.604Z,24.27
2019-05-20T04:14:47.972Z,23.92
2019-05-20T04:17:16.825Z,25.10
2019-05-20T04:19:45.120Z,24.80
2019-05-20T04:22:13.417Z,26.90
2019-05-20T04:24:41.742Z,26.27
2019-05-20T04:27:10.317Z,26.65
2019-05-20T04:29:38.654Z,25.17
2019-05-20T04:32:06.917Z,25.50
2019-05-20T04:34:35.261Z,26.87
2019-05-20T04:37:03.600Z,27.25
2019-05-20T04:39:31.901Z,26.80
2019-05-20T04:42:00.239Z,27.17
2019-05-20T04:44:28.566Z,26.15
2019-05-20T04:46:57.961Z,28.45
2019-05-20T04:49:26.463Z,27.48
2019-05-20T04:51:55.223Z,28.15
2019-05-20T04:54:23.541Z,29.25
2019-05-20T04:56:51.907Z,28.80
2019-05-20T04:59:20.302Z,27.85
2019-05-20T05:01:48.600Z,28.98
2019-05-20T05:04:16.926Z,27.70
2019-05-20T05:06:45.273Z,29.27
2019-05-20T05:09:15.694Z,27.73
2019-05-20T05:11:43.660Z,29.25
2019-05-20T05:14:12.024Z,27.87
2019-05-20T05:16:40.365Z,28.73
2019-05-20T05:19:08.922Z,28.67
2019-05-20T05:21:37.323Z,29.25
2019-05-20T05:24:05.992Z,29.67
2019-05-20T05:26:34.319Z,29.10
2019-05-20T05:29:02.670Z,28.85
2019-05-20T05:31:31.072Z,30.20
2019-05-20T05:33:59.367Z,29.65
2019-05-20T05:36:27.989Z,30.37
2019-05-20T05:38:56.297Z,31.93
2019-05-20T05:41:24.601Z,30.20
2019-05-20T05:43:53.083Z,31.02
2019-05-20T05:46:21.414Z,30.00
2019-05-20T05:48:49.980Z,30.80
2019-05-20T05:51:18.301Z,29.55
2019-05-20T05:53:46.608Z,30.68
2019-05-20T05:56:14.912Z,30.90
2019-05-20T05:58:43.355Z,30.62
2019-05-20T06:01:11.645Z,32.78
2019-05-20T06:03:39.963Z,30.20
2019-05-20T06:06:12.527Z,30.05
2019-05-20T06:08:38.990Z,29.98
2019-05-20T06:11:07.362Z,39.00
2019-05-20T06:13:36.140Z,33.83
2019-05-20T06:16:04.425Z,28.90
2019-05-20T06:18:32.748Z,29.80
2019-05-20T06:21:01.047Z,27.42
2019-05-20T06:23:29.374Z,31.20
2019-05-20T06:25:57.695Z,29.55
2019-05-20T06:28:26.163Z,27.70
2019-05-20T06:30:54.486Z,29.72
2019-05-20T06:33:22.799Z,29.40
2019-05-20T06:35:51.421Z,28.73
2019-05-20T06:38:36.852Z,30.02
2019-05-20T06:41:07.301Z,30.20
2019-05-20T06:43:35.599Z,30.10
2019-05-20T06:46:03.974Z,29.30
2019-05-20T06:48:32.258Z,28.20
2019-05-20T06:51:00.671Z,29.30
2019-05-20T06:53:28.963Z,29.60
2019-05-20T06:55:57.361Z,29.90
2019-05-20T06:58:25.671Z,30.05
2019-05-20T07:00:54.294Z,30.00
2019-05-20T07:03:22.601Z,29.03
2019-05-20T07:05:51.235Z,29.67
2019-05-20T07:08:19.796Z,30.40
2019-05-20T07:10:48.117Z,29.70
2019-05-20T07:13:16.541Z,29.72
2019-05-20T07:15:44.915Z,30.82
2019-05-20T07:18:13.228Z,29.27
2019-05-20T07:20:41.551Z,29.65
2019-05-20T07:23:09.873Z,30.10
2019-05-20T07:25:38.184Z,29.85
2019-05-20T07:28:06.487Z,29.52
2019-05-20T07:30:35.542Z,32.70
2019-05-20T07:33:03.929Z,32.58
2019-05-20T07:35:32.591Z,30.15
2019-05-20T07:38:00.918Z,30.97
2019-05-20T07:40:33.149Z,31.15
2019-05-20T07:43:01.753Z,30.88
2019-05-20T07:45:33.135Z,30.60
2019-05-20T07:48:01.527Z,30.57
2019-05-20T07:50:30.106Z,31.80
2019-05-20T07:53:00.534Z,31.02
2019-05-20T07:55:30.214Z,31.17
2019-05-20T07:58:01.686Z,31.50
2019-05-20T08:00:30.016Z,32.57
2019-05-20T08:02:58.508Z,31.60
2019-05-20T08:05:26.819Z,31.00
2019-05-20T08:07:55.128Z,30.62
2019-05-20T08:10:23.502Z,30.32
2019-05-20T08:12:51.838Z,31.10
2019-05-20T08:15:20.114Z,31.15
2019-05-20T08:17:48.441Z,30.88
2019-05-20T08:20:17.278Z,32.00
2019-05-20T08:22:46.015Z,31.00
2019-05-20T08:25:14.396Z,31.00
2019-05-20T08:27:42.713Z,29.67
2019-05-20T08:30:13.984Z,31.23
2019-05-20T08:32:42.393Z,32.23
2019-05-20T08:35:11.391Z,31.68
2019-05-20T08:37:45.351Z,32.23
2019-05-20T08:40:09.827Z,30.52
2019-05-20T08:42:38.474Z,32.90
2019-05-20T08:45:10.186Z,30.93
2019-05-20T08:47:38.829Z,30.05
2019-05-20T08:50:12.699Z,30.20
2019-05-20T08:52:37.433Z,35.75
2019-05-20T08:55:05.994Z,32.35
2019-05-20T08:57:34.291Z,36.30
2019-05-20T09:00:03.328Z,38.45
2019-05-20T09:02:31.786Z,32.67
2019-05-20T09:05:00.332Z,30.92
2019-05-20T09:07:28.734Z,29.48
2019-05-20T09:09:57.310Z,26.75
2019-05-20T09:12:26.004Z,27.55
2019-05-20T09:14:54.375Z,25.85
2019-05-20T09:17:22.721Z,24.77
2019-05-20T09:19:55.594Z,24.63
2019-05-20T09:22:24.201Z,24.95
2019-05-20T09:24:52.657Z,24.33
2019-05-20T09:27:20.946Z,24.40
2019-05-20T09:29:49.317Z,26.00
2019-05-20T09:32:17.619Z,27.37
2019-05-20T09:34:46.235Z,26.30
2019-05-20T09:37:14.531Z,26.93
2019-05-20T09:39:42.887Z,26.47
2019-05-20T09:42:11.278Z,26.60
2019-05-20T09:44:39.584Z,26.70
2019-05-20T09:47:08.209Z,26.57
2019-05-20T09:49:36.589Z,26.35
2019-05-20T09:52:05.258Z,26.57
2019-05-20T09:54:33.588Z,25.95
2019-05-20T09:57:01.919Z,25.48
2019-05-20T09:59:42.646Z,25.32
2019-05-20T10:02:00.551Z,24.95
2019-05-20T10:04:28.862Z,25.35
2019-05-20T10:06:57.225Z,24.57
2019-05-20T10:09:25.528Z,25.60
2019-05-20T10:11:53.854Z,25.88
2019-05-20T10:14:22.223Z,25.13
2019-05-20T10:16:50.898Z,25.33
2019-05-20T10:19:19.196Z,23.57
2019-05-20T10:21:47.551Z,23.07
2019-05-20T10:24:16.129Z,24.27
2019-05-20T10:26:44.431Z,23.47
2019-05-20T10:29:12.722Z,24.18
2019-05-20T10:31:41.370Z,24.37
2019-05-20T10:34:09.942Z,22.85
2019-05-20T10:36:38.279Z,23.35
2019-05-20T10:39:07.853Z,23.90
2019-05-20T10:41:36.894Z,23.00
2019-05-20T10:44:05.194Z,22.42
2019-05-20T10:46:33.796Z,24.07
2019-05-20T10:49:02.111Z,23.20
2019-05-20T10:51:30.427Z,22.10
2019-05-20T10:53:58.717Z,21.55
2019-05-20T10:56:27.085Z,22.52
2019-05-20T10:58:55.441Z,21.97
2019-05-20T11:01:23.719Z,22.07
2019-05-20T11:03:52.063Z,21.57
2019-05-20T11:06:20.360Z,21.85
2019-05-20T11:08:48.736Z,20.50
2019-05-20T11:11:17.047Z,22.25
2019-05-20T11:13:45.336Z,21.80
2019-05-20T11:16:13.669Z,21.30
2019-05-20T11:18:41.966Z,21.80
2019-05-20T11:21:10.292Z,21.17
2019-05-20T11:23:38.587Z,19.90
2019-05-20T11:26:06.912Z,21.05
2019-05-20T11:28:35.329Z,20.65
2019-05-20T11:31:03.625Z,20.45
2019-05-20T11:33:32.272Z,21.05
2019-05-20T11:36:00.566Z,20.62
2019-05-20T11:38:28.893Z,22.67
2019-05-20T11:40:57.191Z,21.25
2019-05-20T11:43:25.903Z,22.45
2019-05-20T11:45:54.211Z,22.57
2019-05-20T11:48:22.843Z,26.62
2019-05-20T11:50:51.443Z,25.50
2019-05-20T11:53:19.828Z,22.30
2019-05-20T11:55:48.240Z,21.87
2019-05-20T11:58:16.844Z,23.55
2019-05-20T12:00:45.573Z,22.80
2019-05-20T12:03:13.913Z,22.15
2019-05-20T12:05:42.279Z,22.67
2019-05-20T12:08:10.640Z,21.40
2019-05-20T12:10:38.961Z,22.17
2019-05-20T12:13:07.256Z,22.65
2019-05-20T12:15:35.675Z,22.15
2019-05-20T12:18:03.992Z,23.20
2019-05-20T12:20:32.704Z,23.42
2019-05-20T12:23:00.998Z,23.73
2019-05-20T12:25:29.654Z,23.52
2019-05-20T12:27:58.335Z,23.02
2019-05-20T12:30:26.663Z,23.98
2019-05-20T12:33:17.195Z,23.47
2019-05-20T12:35:25.134Z,22.17
2019-05-20T12:37:54.145Z,23.90
2019-05-20T12:40:22.621Z,23.22
2019-05-20T12:42:50.975Z,24.60
2019-05-20T12:45:19.374Z,23.22
2019-05-20T12:47:47.740Z,23.27
2019-05-20T12:50:17.603Z,21.97
2019-05-20T12:52:45.917Z,24.23
2019-05-20T12:55:14.999Z,23.80
2019-05-20T12:57:43.590Z,23.73
2019-05-20T13:00:13.974Z,25.15
2019-05-20T13:02:42.634Z,23.40
2019-05-20T13:05:11.270Z,22.05
2019-05-20T13:07:39.572Z,23.20
2019-05-20T13:10:26.941Z,27.15
2019-05-20T13:12:40.039Z,32.25
2019-05-20T13:15:08.932Z,25.80
2019-05-20T13:17:42.881Z,24.57
2019-05-20T13:20:08.197Z,23.80
2019-05-20T13:22:36.557Z,24.10
2019-05-20T13:25:06.749Z,23.35
2019-05-20T13:27:35.040Z,24.20
2019-05-20T13:30:04.585Z,24.12
2019-05-20T13:32:33.186Z,24.83
2019-05-20T13:35:01.531Z,22.77
2019-05-20T13:37:29.838Z,23.10
2019-05-20T13:40:02.513Z,23.03
2019-05-20T13:42:28.187Z,23.10
2019-05-20T13:44:56.808Z,22.52
2019-05-20T13:47:25.137Z,23.65
2019-05-20T13:49:53.695Z,23.10
2019-05-20T13:52:22.024Z,22.70
2019-05-20T13:54:50.314Z,22.13
2019-05-20T13:57:18.911Z,22.10
2019-05-20T13:59:47.207Z,23.07
2019-05-20T14:02:15.505Z,22.85
2019-05-20T14:04:43.845Z,22.82
2019-05-20T14:07:12.142Z,22.35
2019-05-20T14:12:26.787Z,21.20
2019-05-20T14:14:55.233Z,21.87
2019-05-20T14:17:23.702Z,22.07
2019-05-20T14:19:52.044Z,23.62
2019-05-20T14:22:20.330Z,23.30
2019-05-20T14:24:48.899Z,23.60
2019-05-20T14:27:17.240Z,23.22
2019-05-20T14:29:45.535Z,22.25
2019-05-20T14:32:13.843Z,22.90
2019-05-20T14:34:42.150Z,22.53
2019-05-20T14:37:10.453Z,22.33
2019-05-20T14:39:38.801Z,22.60
2019-05-20T14:42:07.409Z,22.73
2019-05-20T14:44:36.130Z,22.63
2019-05-20T14:47:04.819Z,21.77
2019-05-20T14:49:33.505Z,24.10
2019-05-20T14:52:02.190Z,25.95
2019-05-20T14:54:30.483Z,26.25
2019-05-20T14:56:58.801Z,26.60
2019-05-20T14:59:27.179Z,26.60
2019-05-20T15:01:55.475Z,33.27
2019-05-20T15:04:24.059Z,35.85
2019-05-20T15:06:52.365Z,35.07
2019-05-20T15:09:20.674Z,32.10
2019-05-20T15:11:49.252Z,29.45
2019-05-20T15:14:17.568Z,27.47
2019-05-20T15:16:45.873Z,28.07
2019-05-20T15:19:14.205Z,29.67
2019-05-20T15:21:42.929Z,28.95
2019-05-20T15:24:11.261Z,29.35
2019-05-20T15:26:39.645Z,29.12
2019-05-20T15:29:07.949Z,28.87
2019-05-20T15:31:36.329Z,28.30
2019-05-20T15:34:04.635Z,26.70
2019-05-20T15:36:32.991Z,26.00
2019-05-20T15:39:01.306Z,28.45
2019-05-20T15:41:30.293Z,27.70
2019-05-20T15:43:58.668Z,38.05
2019-05-20T15:46:26.991Z,26.82
2019-05-20T15:48:55.689Z,26.57
2019-05-20T15:51:24.318Z,25.60
2019-05-20T15:53:52.635Z,23.70
2019-05-20T15:56:20.949Z,24.02
2019-05-20T15:58:49.273Z,23.35
2019-05-20T16:01:17.575Z,23.02
2019-05-20T16:03:46.155Z,28.98
2019-05-20T16:06:14.458Z,27.00
2019-05-20T16:08:42.777Z,27.05
2019-05-20T16:11:11.180Z,24.10
2019-05-20T16:13:39.564Z,25.48
2019-05-20T16:16:07.867Z,23.57
2019-05-20T16:18:36.173Z,21.82
2019-05-20T16:21:04.473Z,22.60
2019-05-20T16:23:32.787Z,24.05
2019-05-20T16:26:01.443Z,24.47
2019-05-20T16:28:29.685Z,27.02
2019-05-20T16:30:58.004Z,37.00
2019-05-20T16:33:26.355Z,31.15
2019-05-20T16:35:54.698Z,26.10
2019-05-20T16:38:23.015Z,23.12
2019-05-20T16:40:51.344Z,23.10
2019-05-20T16:43:19.941Z,23.17
2019-05-20T16:45:48.260Z,22.75
2019-05-20T16:48:16.755Z,23.12
2019-05-20T16:50:45.389Z,24.18
2019-05-20T16:53:13.685Z,25.55
2019-05-20T16:55:41.980Z,26.52
2019-05-20T16:58:10.296Z,22.95
2019-05-20T17:00:39.057Z,25.88
2019-05-20T17:03:07.376Z,25.95
2019-05-20T17:05:35.684Z,24.18
2019-05-20T17:08:04.000Z,24.05
2019-05-20T17:10:32.309Z,30.08
2019-05-20T17:13:00.626Z,28.77
2019-05-20T17:15:28.972Z,28.77
2019-05-20T17:17:57.555Z,29.63
2019-05-20T17:20:25.879Z,25.55
2019-05-20T17:22:54.214Z,24.20
2019-05-20T17:25:22.572Z,23.47
2019-05-20T17:27:50.875Z,23.22
2019-05-20T17:30:19.297Z,24.10
2019-05-20T17:32:47.600Z,23.83
2019-05-20T17:35:16.409Z,24.32
2019-05-20T17:37:44.719Z,23.75
2019-05-20T17:40:13.317Z,29.70
2019-05-20T17:42:41.642Z,33.70
2019-05-20T17:45:10.413Z,30.20
2019-05-20T17:47:38.779Z,30.27
2019-05-20T17:50:07.516Z,26.85
2019-05-20T17:52:35.817Z,27.57
2019-05-20T17:55:05.961Z,25.80
2019-05-20T17:57:34.377Z,25.82
2019-05-20T18:00:03.604Z,26.17
2019-05-20T18:02:31.952Z,31.02
2019-05-20T18:05:00.246Z,32.63
2019-05-20T18:07:28.662Z,29.25
2019-05-20T18:09:56.968Z,26.42
2019-05-20T18:12:25.579Z,29.52
2019-05-20T18:14:55.788Z,28.55
2019-05-20T18:17:24.137Z,27.10
2019-05-20T18:19:52.467Z,26.57
2019-05-20T18:22:20.856Z,27.00
2019-05-20T18:24:49.224Z,25.68
2019-05-20T18:27:17.648Z,26.82
2019-05-20T18:29:46.104Z,27.50
2019-05-20T18:32:14.386Z,27.20
2019-05-20T18:34:42.758Z,28.83
2019-05-20T18:37:11.411Z,30.40
2019-05-20T18:39:40.102Z,33.15
2019-05-20T18:42:08.677Z,34.53
2019-05-20T18:44:36.967Z,29.42
2019-05-20T18:47:05.455Z,28.73
2019-05-20T18:49:33.774Z,28.77
2019-05-20T18:52:02.104Z,26.68
2019-05-20T18:54:30.663Z,27.70
2019-05-20T18:56:59.001Z,27.60
2019-05-20T18:59:27.309Z,28.90
2019-05-20T19:02:04.726Z,28.80
2019-05-20T19:04:25.664Z,29.90
2019-05-20T19:06:54.131Z,28.75
2019-05-20T19:09:22.464Z,26.77
2019-05-20T19:11:51.078Z,28.20
2019-05-20T19:14:19.415Z,26.77
2019-05-20T19:16:47.724Z,25.05
2019-05-20T19:19:16.103Z,27.60
2019-05-20T19:21:44.406Z,28.52
2019-05-20T19:24:12.745Z,26.70
2019-05-20T19:26:41.350Z,27.22
2019-05-20T19:29:10.113Z,27.02
2019-05-20T19:31:38.410Z,27.07
2019-05-20T19:34:06.714Z,26.42
2019-05-20T19:36:37.950Z,27.70
2019-05-20T19:39:07.558Z,28.07
2019-05-20T19:41:35.883Z,26.75
2019-05-20T19:44:04.175Z,27.58
2019-05-20T19:46:32.499Z,28.23
2019-05-20T19:49:01.142Z,28.12
2019-05-20T19:51:29.465Z,32.98
2019-05-20T19:53:57.850Z,30.43
2019-05-20T19:56:26.247Z,29.98
2019-05-20T19:58:54.556Z,27.25
2019-05-20T20:01:22.846Z,27.70
2019-05-20T20:03:52.312Z,27.07
2019-05-20T20:06:20.875Z,27.65
2019-05-20T20:08:49.516Z,25.97
2019-05-20T20:11:18.092Z,27.20
2019-05-20T20:13:47.180Z,26.65
2019-05-20T20:16:17.887Z,26.00
2019-05-20T20:18:45.654Z,26.82
2019-05-20T20:21:13.961Z,26.90
2019-05-20T20:23:42.283Z,26.10
2019-05-20T20:26:10.586Z,26.00
2019-05-20T20:28:39.195Z,27.07
2019-05-20T20:31:10.768Z,26.23
2019-05-20T20:33:37.528Z,25.20
2019-05-20T20:36:05.837Z,25.82
2019-05-20T20:38:34.137Z,25.72
2019-05-20T20:41:02.732Z,26.87
2019-05-20T20:43:32.266Z,24.87
2019-05-20T20:46:00.797Z,25.20
2019-05-20T20:48:29.071Z,25.07
2019-05-20T20:50:57.399Z,24.50
2019-05-20T20:53:25.870Z,25.00
2019-05-20T20:55:54.170Z,25.80
2019-05-20T20:58:22.480Z,23.85
2019-05-20T21:00:50.774Z,24.65
2019-05-20T21:03:19.093Z,24.40
2019-05-20T21:05:47.382Z,25.03
2019-05-20T21:08:16.015Z,24.20
2019-05-20T21:10:44.602Z,24.35
2019-05-20T21:13:13.282Z,23.87
2019-05-20T21:15:41.577Z,23.60
2019-05-20T21:18:09.871Z,24.25
2019-05-20T21:20:38.526Z,23.92
2019-05-20T21:23:07.110Z,22.95
2019-05-20T21:25:35.436Z,22.35
2019-05-20T21:28:03.735Z,22.05
2019-05-20T21:30:32.323Z,22.45
2019-05-20T21:33:09.251Z,23.87
2019-05-20T21:35:30.981Z,21.85
2019-05-20T21:37:59.292Z,22.50
2019-05-20T21:40:28.042Z,22.35
2019-05-20T21:42:56.363Z,22.43
2019-05-20T21:45:24.983Z,22.20
2019-05-20T21:47:53.408Z,23.22
2019-05-20T21:50:21.725Z,22.58
2019-05-20T21:52:50.330Z,23.20
2019-05-20T21:55:18.660Z,24.05
2019-05-20T21:57:46.959Z,23.10
2019-05-20T22:00:34.097Z,23.57
2019-05-20T22:03:02.758Z,23.60
2019-05-20T22:05:31.525Z,23.15
2019-05-20T22:07:59.759Z,23.17
2019-05-20T22:10:28.429Z,23.70
2019-05-20T22:12:56.747Z,23.70
2019-05-20T22:15:25.037Z,23.83
2019-05-20T22:17:53.353Z,23.32
2019-05-20T22:20:21.656Z,22.85
2019-05-20T22:22:51.628Z,23.20
2019-05-20T22:25:19.920Z,23.13
2019-05-20T22:27:48.515Z,24.45
2019-05-20T22:30:17.406Z,24.57
2019-05-20T22:32:45.825Z,23.70
2019-05-20T22:35:14.110Z,24.60
2019-05-20T22:37:42.414Z,24.60
2019-05-20T22:40:11.134Z,23.30
2019-05-20T22:42:39.434Z,24.27
2019-05-20T22:45:08.391Z,24.57
2019-05-20T22:47:36.970Z,24.47
2019-05-20T22:50:06.260Z,23.93
2019-05-20T22:52:34.859Z,25.10
2019-05-20T22:55:03.947Z,24.95
2019-05-20T22:57:32.242Z,24.85
2019-05-20T23:00:00.590Z,25.57
2019-05-20T23:02:28.900Z,25.40
2019-05-20T23:05:15.757Z,25.17
2019-05-20T23:07:44.114Z,25.52
2019-05-20T23:10:12.673Z,26.07
2019-05-20T23:12:41.016Z,25.88
2019-05-20T23:15:09.661Z,28.10
2019-05-20T23:17:38.043Z,26.17
2019-05-20T23:20:07.114Z,26.37
2019-05-20T23:22:35.452Z,26.50
2019-05-20T23:25:03.816Z,25.80
2019-05-20T23:27:32.150Z,26.50
2019-05-20T23:30:00.438Z,26.25
2019-05-20T23:32:28.750Z,27.62
2019-05-20T23:34:57.047Z,26.65
2019-05-20T23:37:25.354Z,26.70
2019-05-20T23:39:53.695Z,27.58
2019-05-20T23:42:22.000Z,26.77
2019-05-20T23:44:50.306Z,26.75
2019-05-20T23:47:18.631Z,26.48
2019-05-20T23:49:46.963Z,27.82
2019-05-20T23:52:15.263Z,28.95
2019-05-20T23:54:43.606Z,29.00
2019-05-20T23:57:11.949Z,29.73
2019-05-20T23:59:40.539Z,31.83
